Apolinario Saravia, Argentina
Current Conditions -  °F | °C
As of 9:00 AM on Sunday 21 Dec 2014 (Local Time) from SASJ Reporting Station
Overcast Overcast  
Wind Chill: 19°   Ceiling: 10000
Heat Index: 19°   Visibility: 6mi
Dew Point: 14°   Wind: 16mph
Humidity: 73%   Direction: 180°S
Pressure: 29.85"   Gusts: NA
Location:  24.56°S, 64.14°W
Report Text: SASJ 211200Z 18014KT 9999 SCT035 OVC10019/14 Q1011
Loading
Personal Weather Stations






























Interactive Weather Map New forecast layout! Learn more

10-Day Weather Forecast

Advertisements
Track Severe Weather on mobile